Terminal Aerodrome Forecast
Issued by NWS

Home | Current Version | Previous Version | Text Only | Print | Product List | Glossary On
Versions: 1 2 3 4 5 6 7 8 9 10 11 12 13 14 15 16 17 18 19 20 21 22 23 24 25
000
FTUS45 KTWC 032329
TAFOLS
TAF
KOLS 032329Z 0400/0424 16008KT P6SM VCSH SCT100 SCT200
      TEMPO 0400/0402 09010KT BKN100 BKN200
     FM040200 04005KT P6SM SCT100 SCT200
     FM040900 VRB03KT P6SM SKC
     FM042100 30006KT P6SM SCT100 SCT250=

USA.gov is the U.S. government's official web portal to all federal, state and local government web resources and services.